createdAt,value
2023-04-02T00:00:18.060Z,87574.00
2023-04-02T00:01:18.028Z,87576.00
2023-04-02T00:02:18.080Z,87576.00
2023-04-02T00:03:18.033Z,87578.00
2023-04-02T00:04:18.082Z,87580.00
2023-04-02T00:05:18.003Z,87578.00
2023-04-02T00:06:17.945Z,87578.00
2023-04-02T00:07:17.917Z,87580.00
2023-04-02T00:08:17.934Z,87578.00
2023-04-02T00:09:17.887Z,87582.00
2023-04-02T00:10:17.873Z,87578.00
2023-04-02T00:11:17.852Z,87578.00
2023-04-02T00:12:17.872Z,87578.00
2023-04-02T00:13:17.822Z,87576.00
2023-04-02T00:14:17.808Z,87576.00
2023-04-02T00:15:17.776Z,87578.00
2023-04-02T00:16:17.794Z,87578.00
2023-04-02T00:17:17.748Z,87578.00
2023-04-02T00:18:17.761Z,87578.00
2023-04-02T00:19:17.745Z,87580.00
2023-04-02T00:20:17.752Z,87578.00
2023-04-02T00:21:17.769Z,87578.00
2023-04-02T00:22:17.790Z,87578.00
2023-04-02T00:23:17.796Z,87576.00
2023-04-02T00:24:17.831Z,87578.00
2023-04-02T00:25:17.825Z,87578.00
2023-04-02T00:26:17.845Z,87578.00
2023-04-02T00:27:17.858Z,87580.00
2023-04-02T00:28:17.922Z,87580.00
2023-04-02T00:29:17.884Z,87580.00
2023-04-02T00:30:17.909Z,87580.00
2023-04-02T00:31:17.921Z,87580.00
2023-04-02T00:32:18.006Z,87582.00
2023-04-02T00:33:17.960Z,87580.00
2023-04-02T00:34:17.981Z,87580.00
2023-04-02T00:35:18.013Z,87580.00
2023-04-02T00:36:18.011Z,87578.00
2023-04-02T00:37:18.017Z,87582.00
2023-04-02T00:38:18.052Z,87578.00
2023-04-02T00:39:18.058Z,87580.00
2023-04-02T00:40:18.071Z,87580.00
2023-04-02T00:41:18.084Z,87580.00
2023-04-02T00:42:18.110Z,87582.00
2023-04-02T00:43:18.175Z,87576.00
2023-04-02T00:44:18.135Z,87580.00
2023-04-02T00:45:18.149Z,87576.00
2023-04-02T00:46:18.177Z,87582.00
2023-04-02T00:47:18.203Z,87582.00
2023-04-02T00:48:18.200Z,87582.00
2023-04-02T00:49:18.232Z,87582.00
2023-04-02T00:50:18.239Z,87582.00
2023-04-02T00:51:18.240Z,87580.00
2023-04-02T00:52:18.266Z,87580.00
2023-04-02T00:53:18.272Z,87580.00
2023-04-02T00:54:18.287Z,87574.00
2023-04-02T00:55:18.307Z,87576.00
2023-04-02T00:56:18.357Z,87576.00
2023-04-02T00:57:18.452Z,87574.00
2023-04-02T00:58:18.371Z,87576.00
2023-04-02T00:59:18.395Z,87574.00
2023-04-02T01:00:18.415Z,87576.00
2023-04-02T01:01:18.461Z,87572.00
2023-04-02T01:02:18.577Z,87572.00
2023-04-02T01:03:18.636Z,87572.00
2023-04-02T01:04:18.486Z,87572.00
2023-04-02T01:05:18.499Z,87574.00
2023-04-02T01:06:18.512Z,87572.00
2023-04-02T01:07:18.533Z,87574.00
2023-04-02T01:08:18.570Z,87574.00
2023-04-02T01:09:18.580Z,87572.00
2023-04-02T01:10:18.614Z,87572.00
2023-04-02T01:11:18.618Z,87570.00
2023-04-02T01:12:18.640Z,87574.00
2023-04-02T01:13:18.655Z,87572.00
2023-04-02T01:14:18.686Z,87572.00
2023-04-02T01:15:18.734Z,87574.00
2023-04-02T01:16:18.762Z,87572.00
2023-04-02T01:17:18.734Z,87570.00
2023-04-02T01:18:18.761Z,87572.00
2023-04-02T01:19:18.764Z,87570.00
2023-04-02T01:20:18.806Z,87570.00
2023-04-02T01:21:18.805Z,87570.00
2023-04-02T01:22:18.833Z,87570.00
2023-04-02T01:23:18.845Z,87568.00
2023-04-02T01:24:18.872Z,87572.00
2023-04-02T01:25:18.897Z,87572.00
2023-04-02T01:26:18.903Z,87572.00
2023-04-02T01:27:18.940Z,87572.00
2023-04-02T01:28:18.950Z,87576.00
2023-04-02T01:29:19.011Z,87578.00
2023-04-02T01:30:19.008Z,87578.00
2023-04-02T01:31:19.053Z,87578.00
2023-04-02T01:32:19.046Z,87578.00
2023-04-02T01:33:19.054Z,87576.00
2023-04-02T01:34:19.094Z,87578.00
2023-04-02T01:35:19.101Z,87580.00
2023-04-02T01:36:19.180Z,87580.00
2023-04-02T01:37:19.126Z,87578.00
2023-04-02T01:38:19.160Z,87578.00
2023-04-02T01:39:19.177Z,87576.00
2023-04-02T01:40:19.208Z,87578.00
2023-04-02T01:41:19.213Z,87580.00
2023-04-02T01:42:19.250Z,87578.00
2023-04-02T01:43:19.291Z,87582.00
2023-04-02T01:44:19.256Z,87582.00
2023-04-02T01:45:19.248Z,87582.00
2023-04-02T01:46:19.260Z,87582.00
2023-04-02T01:47:19.211Z,87584.00
2023-04-02T01:48:19.202Z,87586.00
2023-04-02T01:49:19.194Z,87586.00
2023-04-02T01:50:19.179Z,87588.00
2023-04-02T01:51:19.170Z,87588.00
2023-04-02T01:52:19.148Z,87590.00
2023-04-02T01:53:19.135Z,87590.00
2023-04-02T01:54:19.121Z,87590.00
2023-04-02T01:55:19.118Z,87588.00
2023-04-02T01:56:19.171Z,87588.00
2023-04-02T01:57:19.120Z,87590.00
2023-04-02T01:58:19.078Z,87588.00
2023-04-02T01:59:19.073Z,87590.00
2023-04-02T02:00:19.087Z,87588.00
2023-04-02T02:01:19.204Z,87590.00
2023-04-02T02:02:19.163Z,87590.00
2023-04-02T02:03:19.123Z,87590.00
2023-04-02T02:04:19.124Z,87590.00
2023-04-02T02:05:19.150Z,87592.00
2023-04-02T02:06:19.187Z,87592.00
2023-04-02T02:07:19.182Z,87592.00
2023-04-02T02:08:19.207Z,87594.00
2023-04-02T02:09:19.225Z,87592.00
2023-04-02T02:10:19.266Z,87594.00
2023-04-02T02:11:19.272Z,87592.00
2023-04-02T02:12:19.298Z,87592.00
2023-04-02T02:13:19.343Z,87596.00
2023-04-02T02:14:19.344Z,87594.00
2023-04-02T02:15:19.371Z,87594.00
2023-04-02T02:16:19.456Z,87594.00
2023-04-02T02:17:19.435Z,87596.00
2023-04-02T02:18:19.437Z,87599.00
2023-04-02T02:19:19.470Z,87596.00
2023-04-02T02:20:19.524Z,87594.00
2023-04-02T02:21:19.513Z,87596.00
2023-04-02T02:22:19.539Z,87596.00
2023-04-02T02:23:19.557Z,87597.00
2023-04-02T02:24:19.577Z,87594.00
2023-04-02T02:25:19.593Z,87597.00
2023-04-02T02:26:19.638Z,87597.00
2023-04-02T02:27:19.651Z,87599.00
2023-04-02T02:28:19.675Z,87599.00
2023-04-02T02:29:19.697Z,87601.00
2023-04-02T02:30:19.717Z,87601.00
2023-04-02T02:31:19.776Z,87605.00
2023-04-02T02:32:19.803Z,87607.00
2023-04-02T02:33:19.787Z,87605.00
2023-04-02T02:34:19.817Z,87605.00
2023-04-02T02:35:19.877Z,87609.00
2023-04-02T02:36:19.873Z,87607.00
2023-04-02T02:37:19.891Z,87607.00
2023-04-02T02:38:19.918Z,87605.00
2023-04-02T02:39:19.947Z,87605.00
2023-04-02T02:40:19.998Z,87605.00
2023-04-02T02:41:19.998Z,87603.00
2023-04-02T02:42:20.039Z,87603.00
2023-04-02T02:43:20.079Z,87605.00
2023-04-02T02:44:20.213Z,87605.00
2023-04-02T02:45:20.106Z,87603.00
2023-04-02T02:46:20.166Z,87603.00
2023-04-02T02:47:20.148Z,87601.00
2023-04-02T02:48:20.168Z,87601.00
2023-04-02T02:49:20.207Z,87605.00
2023-04-02T02:50:20.219Z,87601.00
2023-04-02T02:51:20.211Z,87605.00
2023-04-02T02:52:20.182Z,87607.00
2023-04-02T02:53:20.181Z,87607.00
2023-04-02T02:54:20.161Z,87609.00
2023-04-02T02:55:20.157Z,87611.00
2023-04-02T02:56:20.144Z,87613.00
2023-04-02T02:57:20.136Z,87613.00
2023-04-02T02:58:20.091Z,87613.00
2023-04-02T02:59:20.085Z,87615.00
2023-04-02T03:00:20.065Z,87617.00
2023-04-02T03:01:20.102Z,87617.00
2023-04-02T03:02:20.110Z,87619.00
2023-04-02T03:03:20.117Z,87623.00
2023-04-02T03:04:20.095Z,87621.00
2023-04-02T03:05:20.035Z,87621.00
2023-04-02T03:06:19.969Z,87623.00
2023-04-02T03:07:19.965Z,87621.00
2023-04-02T03:08:20.024Z,87625.00
2023-04-02T03:09:20.039Z,87625.00
2023-04-02T03:10:20.042Z,87627.00
2023-04-02T03:11:20.075Z,87629.00
2023-04-02T03:12:20.081Z,87629.00
2023-04-02T03:13:20.099Z,87629.00
2023-04-02T03:14:20.129Z,87631.00
2023-04-02T03:15:20.172Z,87631.00
2023-04-02T03:16:20.265Z,87633.00
2023-04-02T03:17:20.207Z,87637.00
2023-04-02T03:18:20.233Z,87635.00
2023-04-02T03:19:20.263Z,87637.00
2023-04-02T03:20:20.260Z,87639.00
2023-04-02T03:21:20.232Z,87639.00
2023-04-02T03:22:20.225Z,87643.00
2023-04-02T03:23:20.588Z,87643.00
2023-04-02T03:24:20.191Z,87645.00
2023-04-02T03:25:20.186Z,87647.00
2023-04-02T03:26:20.179Z,87645.00
2023-04-02T03:27:20.166Z,87645.00
2023-04-02T03:28:20.139Z,87645.00
2023-04-02T03:29:20.134Z,87645.00
2023-04-02T03:30:20.127Z,87647.00
2023-04-02T03:31:20.126Z,87647.00
2023-04-02T03:32:20.077Z,87647.00
2023-04-02T03:33:20.064Z,87649.00
2023-04-02T03:34:20.056Z,87647.00
2023-04-02T03:35:20.034Z,87647.00
2023-04-02T03:36:20.112Z,87649.00
2023-04-02T03:37:20.072Z,87652.00
2023-04-02T03:38:20.096Z,87651.00
2023-04-02T03:39:20.124Z,87651.00
2023-04-02T03:40:20.158Z,87651.00
2023-04-02T03:41:20.178Z,87651.00
2023-04-02T03:42:20.223Z,87652.00
2023-04-02T03:43:20.224Z,87654.00
2023-04-02T03:44:20.242Z,87652.00
2023-04-02T03:45:20.271Z,87652.00
2023-04-02T03:46:20.309Z,87652.00
2023-04-02T03:47:20.327Z,87651.00
2023-04-02T03:48:20.339Z,87656.00
2023-04-02T03:49:20.357Z,87652.00
2023-04-02T03:50:20.386Z,87652.00
2023-04-02T03:51:20.424Z,87651.00
2023-04-02T03:52:20.445Z,87652.00
2023-04-02T03:53:20.479Z,87652.00
2023-04-02T03:54:20.496Z,87652.00
2023-04-02T03:55:20.529Z,87652.00
2023-04-02T03:56:20.547Z,87654.00
2023-04-02T03:57:20.615Z,87652.00
2023-04-02T03:58:20.597Z,87654.00
2023-04-02T03:59:20.618Z,87656.00
2023-04-02T04:00:20.645Z,87656.00
2023-04-02T04:01:20.688Z,87654.00
2023-04-02T04:02:20.798Z,87654.00
2023-04-02T04:03:20.764Z,87654.00
2023-04-02T04:04:20.765Z,87652.00
2023-04-02T04:05:20.779Z,87654.00
2023-04-02T04:06:21.367Z,87658.00
2023-04-02T04:07:20.846Z,87652.00
2023-04-02T04:08:20.866Z,87658.00
2023-04-02T04:09:20.904Z,87658.00
2023-04-02T04:10:20.928Z,87666.00
2023-04-02T04:11:20.999Z,87664.00
2023-04-02T04:12:20.994Z,87666.00
2023-04-02T04:13:21.037Z,87670.00
2023-04-02T04:14:21.042Z,87666.00
2023-04-02T04:15:21.079Z,87666.00
2023-04-02T04:16:21.128Z,87670.00
2023-04-02T04:17:21.182Z,87668.00
2023-04-02T04:18:21.173Z,87670.00
2023-04-02T04:19:21.185Z,87674.00
2023-04-02T04:20:21.222Z,87676.00
2023-04-02T04:21:21.292Z,87680.00
2023-04-02T04:22:21.292Z,87682.00
2023-04-02T04:23:21.316Z,87684.00
2023-04-02T04:24:21.366Z,87684.00
2023-04-02T04:25:21.386Z,87680.00
2023-04-02T04:26:21.425Z,87684.00
2023-04-02T04:27:21.475Z,87682.00
2023-04-02T04:28:21.507Z,87684.00
2023-04-02T04:29:21.515Z,87686.00
2023-04-02T04:30:21.549Z,87692.00
2023-04-02T04:31:22.271Z,87690.00
2023-04-02T04:32:21.643Z,87692.00
2023-04-02T04:33:21.650Z,87694.00
2023-04-02T04:34:21.682Z,87696.00
2023-04-02T04:35:21.750Z,87698.00
2023-04-02T04:36:21.743Z,87694.00
2023-04-02T04:37:21.777Z,87707.00
2023-04-02T04:38:21.834Z,87707.00
2023-04-02T04:39:21.873Z,87705.00
2023-04-02T04:40:21.893Z,87709.00
2023-04-02T04:41:21.958Z,87711.00
2023-04-02T04:42:21.937Z,87713.00
2023-04-02T04:43:21.975Z,87715.00
2023-04-02T04:44:22.031Z,87715.00
2023-04-02T04:45:22.069Z,87713.00
2023-04-02T04:46:22.626Z,87711.00
2023-04-02T04:47:22.140Z,87709.00
2023-04-02T04:48:22.131Z,87713.00
2023-04-02T04:49:22.164Z,87715.00
2023-04-02T04:50:22.201Z,87719.00
2023-04-02T04:51:22.254Z,87720.00
2023-04-02T04:52:22.266Z,87722.00
2023-04-02T04:53:22.294Z,87722.00
2023-04-02T04:54:22.313Z,87724.00
2023-04-02T04:55:22.362Z,87726.00
2023-04-02T04:56:22.395Z,87726.00
2023-04-02T04:57:22.452Z,87724.00
2023-04-02T04:58:22.451Z,87726.00
2023-04-02T04:59:22.469Z,87728.00
2023-04-02T05:00:22.526Z,87732.00
2023-04-02T05:01:22.583Z,87738.00
2023-04-02T05:02:22.771Z,87738.00
2023-04-02T05:03:22.609Z,87740.00
2023-04-02T05:04:22.701Z,87740.00
2023-04-02T05:05:22.682Z,87744.00
2023-04-02T05:06:22.718Z,87746.00
2023-04-02T05:07:22.751Z,87740.00
2023-04-02T05:08:22.787Z,87740.00
2023-04-02T05:09:22.827Z,87740.00
2023-04-02T05:10:22.867Z,87740.00
2023-04-02T05:11:22.887Z,87748.00
2023-04-02T05:12:22.921Z,87750.00
2023-04-02T05:13:22.919Z,87752.00
2023-04-02T05:14:22.883Z,87750.00
2023-04-02T05:15:22.892Z,87752.00
2023-04-02T05:16:22.895Z,87750.00
2023-04-02T05:17:22.912Z,87752.00
2023-04-02T05:18:22.826Z,87746.00
2023-04-02T05:19:22.820Z,87746.00
2023-04-02T05:20:22.801Z,87746.00
2023-04-02T05:21:22.801Z,87748.00
2023-04-02T05:22:22.790Z,87754.00
2023-04-02T05:23:22.773Z,87756.00
2023-04-02T05:24:22.773Z,87754.00
2023-04-02T05:25:22.813Z,87756.00
2023-04-02T05:26:22.858Z,87758.00
2023-04-02T05:27:22.869Z,87758.00
2023-04-02T05:28:22.904Z,87762.00
2023-04-02T05:29:22.946Z,87760.00
2023-04-02T05:30:22.974Z,87756.00
2023-04-02T05:31:23.055Z,87760.00
2023-04-02T05:32:23.101Z,87764.00
2023-04-02T05:33:23.082Z,87767.00
2023-04-02T05:34:23.123Z,87771.00
2023-04-02T05:35:23.167Z,87767.00
2023-04-02T05:36:23.248Z,87766.00
2023-04-02T05:37:23.247Z,87769.00
2023-04-02T05:38:23.269Z,87771.00
2023-04-02T05:39:23.302Z,87775.00
2023-04-02T05:40:23.358Z,87775.00
2023-04-02T05:41:23.382Z,87773.00
2023-04-02T05:42:23.407Z,87775.00
2023-04-02T05:43:23.423Z,87773.00
2023-04-02T05:44:23.456Z,87775.00
2023-04-02T05:45:23.492Z,87777.00
2023-04-02T05:46:23.553Z,87777.00
2023-04-02T05:47:23.647Z,87777.00
2023-04-02T05:48:23.591Z,87775.00
2023-04-02T05:49:23.627Z,87777.00
2023-04-02T05:50:23.647Z,87781.00
2023-04-02T05:51:23.676Z,87779.00
2023-04-02T05:52:23.729Z,87779.00
2023-04-02T05:53:23.754Z,87781.00
2023-04-02T05:54:23.787Z,87783.00
2023-04-02T05:55:23.787Z,87783.00
2023-04-02T05:56:23.816Z,87783.00
2023-04-02T05:57:39.576Z,87783.00
2023-04-02T05:59:24.840Z,87781.00
2023-04-02T06:00:23.813Z,87783.00
2023-04-02T06:01:23.788Z,87781.00
2023-04-02T06:02:23.883Z,87781.00
2023-04-02T06:03:23.774Z,87781.00
2023-04-02T06:04:23.736Z,87777.00
2023-04-02T06:05:23.720Z,87783.00
2023-04-02T06:06:23.708Z,87781.00
2023-04-02T06:07:23.711Z,87783.00
2023-04-02T06:08:23.698Z,87783.00
2023-04-02T06:09:23.684Z,87783.00
2023-04-02T06:10:24.945Z,87785.00
2023-04-02T06:11:23.649Z,87783.00
2023-04-02T06:12:23.650Z,87785.00
2023-04-02T06:13:23.628Z,87785.00
2023-04-02T06:14:23.598Z,87783.00
2023-04-02T06:15:23.579Z,87785.00
2023-04-02T06:16:23.597Z,87787.00
2023-04-02T06:17:23.649Z,87785.00
2023-04-02T06:18:23.541Z,87787.00
2023-04-02T06:19:23.551Z,87787.00
2023-04-02T06:20:23.511Z,87787.00
2023-04-02T06:21:23.507Z,87791.00
2023-04-02T06:22:23.500Z,87791.00
2023-04-02T06:23:23.479Z,87793.00
2023-04-02T06:24:23.460Z,87787.00
2023-04-02T06:25:23.478Z,87785.00
2023-04-02T06:26:23.429Z,87791.00
2023-04-02T06:27:23.455Z,87791.00
2023-04-02T06:28:23.419Z,87789.00
2023-04-02T06:29:23.415Z,87789.00
2023-04-02T06:30:23.398Z,87785.00
2023-04-02T06:31:23.462Z,87785.00
2023-04-02T06:32:23.401Z,87787.00
2023-04-02T06:33:23.368Z,87789.00
2023-04-02T06:34:23.334Z,87791.00
2023-04-02T06:35:23.328Z,87791.00
2023-04-02T06:36:23.379Z,87791.00
2023-04-02T06:37:23.309Z,87795.00
2023-04-02T06:38:23.274Z,87795.00
2023-04-02T06:39:23.277Z,87793.00
2023-04-02T06:40:23.249Z,87791.00
2023-04-02T06:41:23.238Z,87791.00
2023-04-02T06:42:23.209Z,87795.00
2023-04-02T06:43:23.245Z,87795.00
2023-04-02T06:44:23.258Z,87793.00
2023-04-02T06:45:23.285Z,87793.00
2023-04-02T06:46:23.328Z,87793.00
2023-04-02T06:47:23.341Z,87795.00
2023-04-02T06:48:23.392Z,87797.00
2023-04-02T06:49:23.407Z,87797.00
2023-04-02T06:50:23.456Z,87799.00
2023-04-02T06:51:23.464Z,87797.00
2023-04-02T06:52:23.496Z,87797.00
2023-04-02T06:53:23.531Z,87797.00
2023-04-02T06:54:23.566Z,87799.00
2023-04-02T06:55:23.607Z,87797.00
2023-04-02T06:56:23.631Z,87799.00
2023-04-02T06:57:23.677Z,87797.00
2023-04-02T06:58:23.681Z,87801.00
2023-04-02T06:59:23.691Z,87799.00
2023-04-02T07:00:23.723Z,87801.00
2023-04-02T07:01:23.742Z,87799.00
2023-04-02T07:02:23.702Z,87801.00
2023-04-02T07:03:23.691Z,87805.00
2023-04-02T07:04:23.716Z,87801.00
2023-04-02T07:05:23.656Z,87801.00
2023-04-02T07:06:23.648Z,87801.00
2023-04-02T07:07:23.622Z,87805.00
2023-04-02T07:08:23.628Z,87803.00
2023-04-02T07:09:23.617Z,87805.00
2023-04-02T07:10:23.603Z,87807.00
2023-04-02T07:11:23.587Z,87805.00
2023-04-02T07:12:23.588Z,87803.00
2023-04-02T07:13:23.553Z,87805.00
2023-04-02T07:14:23.542Z,87805.00
2023-04-02T07:15:23.526Z,87807.00
2023-04-02T07:16:23.572Z,87809.00
2023-04-02T07:17:23.572Z,87809.00
2023-04-02T07:18:23.597Z,87811.00
2023-04-02T07:19:23.608Z,87811.00
2023-04-02T07:20:23.654Z,87811.00
2023-04-02T07:21:23.647Z,87813.00
2023-04-02T07:22:23.740Z,87815.00
2023-04-02T07:23:23.704Z,87815.00
2023-04-02T07:24:23.704Z,87817.00
2023-04-02T07:25:23.732Z,87815.00
2023-04-02T07:26:23.748Z,87817.00
2023-04-02T07:27:23.762Z,87815.00
2023-04-02T07:28:23.844Z,87817.00
2023-04-02T07:29:23.792Z,87817.00
2023-04-02T07:30:23.861Z,87817.00
2023-04-02T07:31:23.876Z,87815.00
2023-04-02T07:32:23.859Z,87813.00
2023-04-02T07:33:23.868Z,87817.00
2023-04-02T07:34:23.868Z,87815.00
2023-04-02T07:35:23.869Z,87817.00
2023-04-02T07:36:23.972Z,87819.00
2023-04-02T07:37:23.906Z,87817.00
2023-04-02T07:38:23.938Z,87815.00
2023-04-02T07:39:23.935Z,87817.00
2023-04-02T07:40:24.006Z,87815.00
2023-04-02T07:41:23.977Z,87821.00
2023-04-02T07:42:23.981Z,87817.00
2023-04-02T07:43:24.032Z,87819.00
2023-04-02T07:44:24.001Z,87819.00
2023-04-02T07:45:23.999Z,87819.00
2023-04-02T07:46:24.035Z,87819.00
2023-04-02T07:47:24.012Z,87819.00
2023-04-02T07:48:24.019Z,87817.00
2023-04-02T07:49:24.025Z,87817.00
2023-04-02T07:50:24.010Z,87821.00
2023-04-02T07:51:24.005Z,87821.00
2023-04-02T07:52:23.989Z,87819.00
2023-04-02T07:53:23.992Z,87819.00
2023-04-02T07:54:23.993Z,87821.00
2023-04-02T07:55:23.985Z,87822.00
2023-04-02T07:56:23.988Z,87824.00
2023-04-02T07:57:24.032Z,87824.00
2023-04-02T07:58:23.987Z,87822.00
2023-04-02T07:59:23.967Z,87822.00
2023-04-02T08:00:23.974Z,87822.00
2023-04-02T08:01:23.990Z,87824.00
2023-04-02T08:02:24.080Z,87828.00
2023-04-02T08:03:24.007Z,87826.00
2023-04-02T08:04:24.018Z,87828.00
2023-04-02T08:05:23.911Z,87830.00
2023-04-02T08:06:23.908Z,87830.00
2023-04-02T08:07:23.917Z,87830.00
2023-04-02T08:08:23.887Z,87832.00
2023-04-02T08:09:23.874Z,87832.00
2023-04-02T08:10:23.851Z,87834.00
2023-04-02T08:11:23.832Z,87836.00
2023-04-02T08:12:23.824Z,87836.00
2023-04-02T08:13:23.826Z,87834.00
2023-04-02T08:14:23.759Z,87838.00
2023-04-02T08:15:23.759Z,87838.00
2023-04-02T08:16:23.733Z,87838.00
2023-04-02T08:17:23.724Z,87838.00
2023-04-02T08:18:23.706Z,87838.00
2023-04-02T08:19:23.717Z,87840.00
2023-04-02T08:20:23.651Z,87842.00
2023-04-02T08:21:23.602Z,87842.00
2023-04-02T08:22:23.594Z,87842.00
2023-04-02T08:23:23.590Z,87842.00
2023-04-02T08:24:23.572Z,87844.00
2023-04-02T08:25:23.543Z,87840.00
2023-04-02T08:26:23.570Z,87836.00
2023-04-02T08:27:23.608Z,87838.00
2023-04-02T08:28:23.573Z,87840.00
2023-04-02T08:29:23.590Z,87840.00
2023-04-02T08:30:23.584Z,87840.00
2023-04-02T08:31:23.694Z,87842.00
2023-04-02T08:32:23.649Z,87844.00
2023-04-02T08:33:23.636Z,87844.00
2023-04-02T08:34:23.636Z,87848.00
2023-04-02T08:35:23.632Z,87846.00
2023-04-02T08:36:23.666Z,87846.00
2023-04-02T08:37:23.659Z,87846.00
2023-04-02T08:38:23.665Z,87848.00
2023-04-02T08:39:23.660Z,87840.00
2023-04-02T08:40:23.647Z,87838.00
2023-04-02T08:41:23.603Z,87842.00
2023-04-02T08:42:23.545Z,87840.00
2023-04-02T08:43:23.733Z,87838.00
2023-04-02T08:44:23.503Z,87840.00
2023-04-02T08:45:25.427Z,87840.00
2023-04-02T08:46:23.510Z,87844.00
2023-04-02T08:47:23.421Z,87848.00
2023-04-02T08:48:23.352Z,87846.00
2023-04-02T08:49:23.312Z,87848.00
2023-04-02T08:50:23.277Z,87850.00
2023-04-02T08:51:23.235Z,87848.00
2023-04-02T08:52:23.263Z,87850.00
2023-04-02T08:53:23.177Z,87850.00
2023-04-02T08:54:23.310Z,87848.00
2023-04-02T08:55:23.126Z,87848.00
2023-04-02T08:56:23.104Z,87848.00
2023-04-02T08:57:23.163Z,87846.00
2023-04-02T08:58:23.038Z,87848.00
2023-04-02T08:59:23.057Z,87846.00
2023-04-02T09:00:23.052Z,87844.00
2023-04-02T09:01:23.031Z,87846.00
2023-04-02T09:02:23.103Z,87846.00
2023-04-02T09:03:23.001Z,87846.00
2023-04-02T09:04:23.077Z,87846.00
2023-04-02T09:05:22.952Z,87848.00
2023-04-02T09:06:22.934Z,87850.00
2023-04-02T09:07:22.931Z,87848.00
2023-04-02T09:08:22.894Z,87850.00
2023-04-02T09:09:22.865Z,87854.00
2023-04-02T09:10:22.860Z,87852.00
2023-04-02T09:11:22.828Z,87854.00
2023-04-02T09:12:22.810Z,87854.00
2023-04-02T09:13:22.781Z,87852.00
2023-04-02T09:14:22.768Z,87856.00
2023-04-02T09:15:22.772Z,87852.00
2023-04-02T09:16:22.793Z,87854.00
2023-04-02T09:17:22.729Z,87856.00
2023-04-02T09:18:22.735Z,87854.00
2023-04-02T09:19:22.695Z,87854.00
2023-04-02T09:20:22.648Z,87854.00
2023-04-02T09:21:22.651Z,87858.00
2023-04-02T09:22:22.632Z,87858.00
2023-04-02T09:23:22.573Z,87856.00
2023-04-02T09:24:22.553Z,87852.00
2023-04-02T09:25:22.521Z,87854.00
2023-04-02T09:26:22.494Z,87854.00
2023-04-02T09:27:22.463Z,87854.00
2023-04-02T09:28:22.441Z,87854.00
2023-04-02T09:29:22.413Z,87856.00
2023-04-02T09:30:22.401Z,87858.00
2023-04-02T09:31:22.423Z,87854.00
2023-04-02T09:32:22.347Z,87860.00
2023-04-02T09:33:22.337Z,87860.00
2023-04-02T09:34:22.303Z,87858.00
2023-04-02T09:35:26.021Z,87858.00
2023-04-02T09:36:22.348Z,87860.00
2023-04-02T09:37:22.241Z,87864.00
2023-04-02T09:38:22.215Z,87862.00
2023-04-02T09:39:22.163Z,87862.00
2023-04-02T09:40:22.136Z,87862.00
2023-04-02T09:41:22.096Z,87866.00
2023-04-02T09:42:22.063Z,87862.00
2023-04-02T09:43:22.027Z,87864.00
2023-04-02T09:44:22.027Z,87864.00
2023-04-02T09:45:21.957Z,87866.00
2023-04-02T09:46:21.954Z,87866.00
2023-04-02T09:47:21.959Z,87868.00
2023-04-02T09:48:21.853Z,87864.00
2023-04-02T09:49:21.867Z,87864.00
2023-04-02T09:50:21.959Z,87864.00
2023-04-02T09:51:21.803Z,87868.00
2023-04-02T09:52:21.731Z,87866.00
2023-04-02T09:53:21.706Z,87866.00
2023-04-02T09:54:21.676Z,87868.00
2023-04-02T09:55:21.647Z,87870.00
2023-04-02T09:56:21.583Z,87870.00
2023-04-02T09:57:21.575Z,87868.00
2023-04-02T09:58:21.511Z,87870.00
2023-04-02T09:59:21.551Z,87870.00
2023-04-02T10:00:30.723Z,87868.00
2023-04-02T10:01:22.438Z,87870.00
2023-04-02T10:02:21.364Z,87870.00
2023-04-02T10:03:21.319Z,87868.00
2023-04-02T10:04:21.349Z,87868.00
2023-04-02T10:05:30.047Z,87870.00
2023-04-02T10:06:22.239Z,87870.00
2023-04-02T10:07:21.185Z,87870.00
2023-04-02T10:08:21.157Z,87868.00
2023-04-02T10:09:21.112Z,87866.00
2023-04-02T10:10:21.115Z,87868.00
2023-04-02T10:11:21.044Z,87872.00
2023-04-02T10:12:21.021Z,87870.00
2023-04-02T10:13:20.972Z,87868.00
2023-04-02T10:14:21.048Z,87868.00
2023-04-02T10:15:21.016Z,87868.00
2023-04-02T10:16:21.128Z,87868.00
2023-04-02T10:17:21.067Z,87868.00
2023-04-02T10:18:21.097Z,87868.00
2023-04-02T10:19:21.121Z,87862.00
2023-04-02T10:20:21.136Z,87858.00
2023-04-02T10:21:21.219Z,87862.00
2023-04-02T10:22:21.199Z,87864.00
2023-04-02T10:23:21.229Z,87862.00
2023-04-02T10:24:21.236Z,87862.00
2023-04-02T10:25:21.300Z,87862.00
2023-04-02T10:26:21.290Z,87862.00
2023-04-02T10:27:21.321Z,87860.00
2023-04-02T10:28:21.352Z,87862.00
2023-04-02T10:29:21.381Z,87864.00
2023-04-02T10:30:21.395Z,87862.00
2023-04-02T10:31:21.472Z,87864.00
2023-04-02T10:32:21.430Z,87864.00
2023-04-02T10:33:21.511Z,87864.00
2023-04-02T10:34:21.492Z,87866.00
2023-04-02T10:35:21.495Z,87868.00
2023-04-02T10:36:21.481Z,87864.00
2023-04-02T10:37:21.500Z,87868.00
2023-04-02T10:38:21.462Z,87866.00
2023-04-02T10:39:21.464Z,87866.00
2023-04-02T10:40:21.492Z,87868.00
2023-04-02T10:41:21.504Z,87866.00
2023-04-02T10:42:21.528Z,87864.00
2023-04-02T10:43:21.522Z,87866.00
2023-04-02T10:44:21.529Z,87866.00
2023-04-02T10:45:21.537Z,87870.00
2023-04-02T10:46:23.651Z,87870.00
2023-04-02T10:47:21.511Z,87866.00
2023-04-02T10:48:21.491Z,87868.00
2023-04-02T10:49:21.469Z,87870.00
2023-04-02T10:50:21.420Z,87872.00
2023-04-02T10:51:21.379Z,87868.00
2023-04-02T10:52:21.353Z,87868.00
2023-04-02T10:53:21.298Z,87864.00
2023-04-02T10:54:21.268Z,87864.00
2023-04-02T10:55:21.246Z,87868.00
2023-04-02T10:56:21.286Z,87866.00
2023-04-02T10:57:21.302Z,87864.00
2023-04-02T10:58:21.331Z,87866.00
2023-04-02T10:59:21.373Z,87868.00
2023-04-02T11:00:21.422Z,87870.00
2023-04-02T11:01:21.476Z,87872.00
2023-04-02T11:02:21.512Z,87870.00
2023-04-02T11:03:21.605Z,87870.00
2023-04-02T11:04:21.565Z,87872.00
2023-04-02T11:05:21.595Z,87872.00
2023-04-02T11:06:21.636Z,87876.00
2023-04-02T11:07:21.698Z,87877.00
2023-04-02T11:08:21.718Z,87870.00
2023-04-02T11:09:21.761Z,87872.00
2023-04-02T11:10:21.804Z,87872.00
2023-04-02T11:11:21.861Z,87872.00
2023-04-02T11:12:21.860Z,87872.00
2023-04-02T11:13:21.992Z,87870.00
2023-04-02T11:14:21.953Z,87870.00
2023-04-02T11:15:22.026Z,87868.00
2023-04-02T11:16:22.074Z,87868.00
2023-04-02T11:17:22.174Z,87870.00
2023-04-02T11:18:22.115Z,87872.00
2023-04-02T11:19:22.162Z,87868.00
2023-04-02T11:20:22.191Z,87874.00
2023-04-02T11:21:22.241Z,87874.00
2023-04-02T11:22:22.270Z,87876.00
2023-04-02T11:23:22.321Z,87881.00
2023-04-02T11:24:22.315Z,87879.00
2023-04-02T11:25:22.358Z,87887.00
2023-04-02T11:26:22.385Z,87881.00
2023-04-02T11:27:22.421Z,87887.00
2023-04-02T11:28:23.027Z,87889.00
2023-04-02T11:29:22.607Z,87891.00
2023-04-02T11:30:22.562Z,87895.00
2023-04-02T11:31:22.596Z,87895.00
2023-04-02T11:32:22.675Z,87897.00
2023-04-02T11:33:30.008Z,87897.00
2023-04-02T11:34:23.606Z,87899.00
2023-04-02T11:35:22.601Z,87905.00
2023-04-02T11:36:22.596Z,87901.00
2023-04-02T11:37:22.504Z,87903.00
2023-04-02T11:38:22.485Z,87905.00
2023-04-02T11:39:22.453Z,87909.00
2023-04-02T11:40:22.412Z,87905.00
2023-04-02T11:41:22.399Z,87911.00
2023-04-02T11:42:22.368Z,87909.00
2023-04-02T11:43:22.403Z,87915.00
2023-04-02T11:44:22.413Z,87913.00
2023-04-02T11:45:22.453Z,87915.00